sensor_id;sensor_type;location;lat;lon;timestamp;P1;durP1;ratioP1;P2;durP2;ratioP2
64022;SDS011;50264;52.088;5.296;2022-08-19T00:02:58;1999.9;;;257.0;;
64022;SDS011;50264;52.088;5.296;2022-08-19T00:04:36;1707.8;;;243.0;;
64022;SDS011;50264;52.088;5.296;2022-08-19T00:06:12;1894.5;;;249.7;;
64022;SDS011;50264;52.088;5.296;2022-08-19T00:07:49;1756.4;;;258.2;;
64022;SDS011;50264;52.088;5.296;2022-08-19T00:11:03;1830.0;;;233.5;;
64022;SDS011;50264;52.088;5.296;2022-08-19T00:12:41;1656.8;;;269.11;;
64022;SDS011;50264;52.088;5.296;2022-08-19T00:14:18;1751.6;;;246.0;;
64022;SDS011;50264;52.088;5.296;2022-08-19T00:17:31;1935.3;;;300.3;;
64022;SDS011;50264;52.088;5.296;2022-08-19T00:19:07;1694.4;;;286.3;;
64022;SDS011;50264;52.088;5.296;2022-08-19T00:20:45;1694.4;;;286.3;;
64022;SDS011;50264;52.088;5.296;2022-08-19T00:23:58;1892.4;;;269.8;;
64022;SDS011;50264;52.088;5.296;2022-08-19T00:25:36;1999.9;;;268.7;;
64022;SDS011;50264;52.088;5.296;2022-08-19T00:27:12;1782.4;;;274.0;;
64022;SDS011;50264;52.088;5.296;2022-08-19T00:28:49;1974.5;;;245.6;;
64022;SDS011;50264;52.088;5.296;2022-08-19T00:32:04;1993.4;;;260.4;;
64022;SDS011;50264;52.088;5.296;2022-08-19T00:33:41;1999.9;;;281.91;;
64022;SDS011;50264;52.088;5.296;2022-08-19T00:35:18;1700.6;;;288.8;;
64022;SDS011;50264;52.088;5.296;2022-08-19T00:38:31;1828.9;;;290.8;;
64022;SDS011;50264;52.088;5.296;2022-08-19T00:40:10;1940.1;;;278.5;;
64022;SDS011;50264;52.088;5.296;2022-08-19T00:41:49;1999.9;;;302.0;;
64022;SDS011;50264;52.088;5.296;2022-08-19T00:43:27;1913.8;;;268.8;;
64022;SDS011;50264;52.088;5.296;2022-08-19T00:46:48;1820.1;;;312.11;;
64022;SDS011;50264;52.088;5.296;2022-08-19T00:48:26;1999.9;;;293.8;;
64022;SDS011;50264;52.088;5.296;2022-08-19T00:50:02;1948.6;;;278.8;;
64022;SDS011;50264;52.088;5.296;2022-08-19T00:53:22;1999.9;;;330.1;;
64022;SDS011;50264;52.088;5.296;2022-08-19T00:55:04;1919.4;;;292.8;;
64022;SDS011;50264;52.088;5.296;2022-08-19T00:56:44;1990.0;;;292.0;;
64022;SDS011;50264;52.088;5.296;2022-08-19T00:58:22;1979.0;;;308.5;;
64022;SDS011;50264;52.088;5.296;2022-08-19T01:00:05;1952.1;;;290.41;;
64022;SDS011;50264;52.088;5.296;2022-08-19T01:03:23;1999.9;;;321.11;;
64022;SDS011;50264;52.088;5.296;2022-08-19T01:05:00;1999.9;;;321.61;;
64022;SDS011;50264;52.088;5.296;2022-08-19T01:06:41;1755.8;;;293.61;;
64022;SDS011;50264;52.088;5.296;2022-08-19T01:09:55;1999.9;;;282.5;;
64022;SDS011;50264;52.088;5.296;2022-08-19T01:11:33;1870.6;;;304.41;;
64022;SDS011;50264;52.088;5.296;2022-08-19T01:13:19;1917.1;;;272.3;;
64022;SDS011;50264;52.088;5.296;2022-08-19T01:14:58;1704.5;;;292.61;;
64022;SDS011;50264;52.088;5.296;2022-08-19T01:18:15;1973.3;;;304.11;;
64022;SDS011;50264;52.088;5.296;2022-08-19T01:19:53;1999.9;;;292.7;;
64022;SDS011;50264;52.088;5.296;2022-08-19T01:21:40;1999.9;;;337.1;;
64022;SDS011;50264;52.088;5.296;2022-08-19T01:23:20;1962.3;;;267.5;;
64022;SDS011;50264;52.088;5.296;2022-08-19T01:26:34;1999.9;;;317.2;;
64022;SDS011;50264;52.088;5.296;2022-08-19T01:28:17;1996.2;;;302.2;;
64022;SDS011;50264;52.088;5.296;2022-08-19T01:29:54;1912.3;;;312.0;;
64022;SDS011;50264;52.088;5.296;2022-08-19T01:31:31;1999.9;;;306.8;;
64022;SDS011;50264;52.088;5.296;2022-08-19T01:34:46;1934.1;;;279.41;;
64022;SDS011;50264;52.088;5.296;2022-08-19T01:36:23;1999.9;;;320.5;;
64022;SDS011;50264;52.088;5.296;2022-08-19T01:38:08;1999.9;;;320.5;;
64022;SDS011;50264;52.088;5.296;2022-08-19T01:41:23;1947.9;;;290.8;;
64022;SDS011;50264;52.088;5.296;2022-08-19T01:43:00;1993.3;;;311.2;;
64022;SDS011;50264;52.088;5.296;2022-08-19T01:44:37;1917.4;;;306.2;;
64022;SDS011;50264;52.088;5.296;2022-08-19T01:46:15;1868.7;;;305.61;;
64022;SDS011;50264;52.088;5.296;2022-08-19T01:49:29;1999.9;;;308.11;;
64022;SDS011;50264;52.088;5.296;2022-08-19T01:51:06;1983.0;;;262.0;;
64022;SDS011;50264;52.088;5.296;2022-08-19T01:52:45;1881.3;;;276.11;;
64022;SDS011;50264;52.088;5.296;2022-08-19T01:56:00;1999.9;;;287.0;;
64022;SDS011;50264;52.088;5.296;2022-08-19T01:57:39;1903.3;;;294.41;;
64022;SDS011;50264;52.088;5.296;2022-08-19T01:59:20;1952.0;;;308.2;;
64022;SDS011;50264;52.088;5.296;2022-08-19T02:00:59;1999.9;;;322.0;;
64022;SDS011;50264;52.088;5.296;2022-08-19T02:04:12;1928.7;;;277.2;;
64022;SDS011;50264;52.088;5.296;2022-08-19T02:05:53;1904.7;;;316.8;;
64022;SDS011;50264;52.088;5.296;2022-08-19T02:07:32;1797.2;;;302.7;;
64022;SDS011;50264;52.088;5.296;2022-08-19T02:09:08;1718.1;;;301.61;;
64022;SDS011;50264;52.088;5.296;2022-08-19T02:12:22;1867.5;;;307.5;;
64022;SDS011;50264;52.088;5.296;2022-08-19T02:13:58;1999.9;;;335.8;;
64022;SDS011;50264;52.088;5.296;2022-08-19T02:15:36;1799.7;;;277.7;;
64022;SDS011;50264;52.088;5.296;2022-08-19T02:18:50;1938.9;;;272.3;;
64022;SDS011;50264;52.088;5.296;2022-08-19T02:20:26;1999.9;;;280.5;;
64022;SDS011;50264;52.088;5.296;2022-08-19T02:22:03;1924.7;;;302.5;;
64022;SDS011;50264;52.088;5.296;2022-08-19T02:25:16;1745.9;;;300.0;;
64022;SDS011;50264;52.088;5.296;2022-08-19T02:26:52;1764.0;;;287.11;;
64022;SDS011;50264;52.088;5.296;2022-08-19T02:28:29;1883.3;;;310.11;;
64022;SDS011;50264;52.088;5.296;2022-08-19T02:30:07;1639.4;;;276.0;;
64022;SDS011;50264;52.088;5.296;2022-08-19T02:33:23;1999.9;;;308.11;;
64022;SDS011;50264;52.088;5.296;2022-08-19T02:35:00;1866.0;;;328.2;;
64022;SDS011;50264;52.088;5.296;2022-08-19T02:36:36;1980.1;;;325.41;;
64022;SDS011;50264;52.088;5.296;2022-08-19T02:40:06;1943.2;;;313.5;;
64022;SDS011;50264;52.088;5.296;2022-08-19T02:41:44;1999.9;;;286.0;;
64022;SDS011;50264;52.088;5.296;2022-08-19T02:43:20;1999.9;;;283.11;;
64022;SDS011;50264;52.088;5.296;2022-08-19T02:44:58;1999.9;;;292.91;;
64022;SDS011;50264;52.088;5.296;2022-08-19T02:48:11;1885.1;;;312.0;;
64022;SDS011;50264;52.088;5.296;2022-08-19T02:49:49;1864.1;;;326.11;;
64022;SDS011;50264;52.088;5.296;2022-08-19T02:51:27;1999.9;;;343.3;;
64022;SDS011;50264;52.088;5.296;2022-08-19T02:53:08;1888.2;;;297.8;;
64022;SDS011;50264;52.088;5.296;2022-08-19T02:56:22;1838.1;;;284.8;;
64022;SDS011;50264;52.088;5.296;2022-08-19T02:57:59;1999.9;;;295.91;;
64022;SDS011;50264;52.088;5.296;2022-08-19T02:59:36;1999.9;;;342.8;;
64022;SDS011;50264;52.088;5.296;2022-08-19T03:02:57;1866.7;;;304.5;;
64022;SDS011;50264;52.088;5.296;2022-08-19T03:04:33;1999.9;;;318.91;;
64022;SDS011;50264;52.088;5.296;2022-08-19T03:06:11;1979.4;;;266.5;;
64022;SDS011;50264;52.088;5.296;2022-08-19T03:07:49;1924.8;;;285.5;;
64022;SDS011;50264;52.088;5.296;2022-08-19T03:11:03;1999.9;;;284.8;;
64022;SDS011;50264;52.088;5.296;2022-08-19T03:12:40;1999.9;;;288.41;;
64022;SDS011;50264;52.088;5.296;2022-08-19T03:14:18;1999.9;;;310.41;;
64022;SDS011;50264;52.088;5.296;2022-08-19T03:17:30;1999.9;;;348.0;;
64022;SDS011;50264;52.088;5.296;2022-08-19T03:19:06;1891.9;;;308.7;;
64022;SDS011;50264;52.088;5.296;2022-08-19T03:20:43;1999.9;;;300.0;;
64022;SDS011;50264;52.088;5.296;2022-08-19T03:22:21;1808.1;;;256.2;;
64022;SDS011;50264;52.088;5.296;2022-08-19T03:25:43;1931.3;;;293.91;;
64022;SDS011;50264;52.088;5.296;2022-08-19T03:27:24;1999.9;;;344.0;;
64022;SDS011;50264;52.088;5.296;2022-08-19T03:29:02;1999.9;;;316.11;;
64022;SDS011;50264;52.088;5.296;2022-08-19T03:32:19;1988.7;;;294.8;;
64022;SDS011;50264;52.088;5.296;2022-08-19T03:33:55;1999.9;;;294.8;;
64022;SDS011;50264;52.088;5.296;2022-08-19T03:35:31;1999.9;;;289.61;;
64022;SDS011;50264;52.088;5.296;2022-08-19T03:37:09;1999.9;;;354.3;;
64022;SDS011;50264;52.088;5.296;2022-08-19T03:40:30;1870.5;;;292.2;;
64022;SDS011;50264;52.088;5.296;2022-08-19T03:42:07;1999.9;;;329.2;;
64022;SDS011;50264;52.088;5.296;2022-08-19T03:43:46;1999.9;;;281.3;;
64022;SDS011;50264;52.088;5.296;2022-08-19T03:45:23;1999.9;;;286.3;;
64022;SDS011;50264;52.088;5.296;2022-08-19T03:48:36;1796.7;;;310.8;;
64022;SDS011;50264;52.088;5.296;2022-08-19T03:50:14;1999.9;;;331.1;;
64022;SDS011;50264;52.088;5.296;2022-08-19T03:51:52;1999.9;;;342.8;;
64022;SDS011;50264;52.088;5.296;2022-08-19T03:55:08;1999.9;;;303.11;;
64022;SDS011;50264;52.088;5.296;2022-08-19T03:56:46;1999.9;;;317.5;;
64022;SDS011;50264;52.088;5.296;2022-08-19T03:58:25;1999.9;;;356.9;;
64022;SDS011;50264;52.088;5.296;2022-08-19T04:00:04;1999.9;;;343.9;;
64022;SDS011;50264;52.088;5.296;2022-08-19T04:03:19;1999.9;;;357.1;;
64022;SDS011;50264;52.088;5.296;2022-08-19T04:04:55;1999.9;;;345.8;;
64022;SDS011;50264;52.088;5.296;2022-08-19T04:06:32;1872.7;;;337.0;;
64022;SDS011;50264;52.088;5.296;2022-08-19T04:09:47;1999.9;;;306.61;;
64022;SDS011;50264;52.088;5.296;2022-08-19T04:11:24;1999.9;;;376.6;;
64022;SDS011;50264;52.088;5.296;2022-08-19T04:13:04;1999.9;;;341.0;;
64022;SDS011;50264;52.088;5.296;2022-08-19T04:14:41;1775.5;;;330.2;;
64022;SDS011;50264;52.088;5.296;2022-08-19T04:17:56;1999.9;;;365.5;;
64022;SDS011;50264;52.088;5.296;2022-08-19T04:19:32;1862.8;;;290.7;;
64022;SDS011;50264;52.088;5.296;2022-08-19T04:21:14;1999.9;;;343.7;;
64022;SDS011;50264;52.088;5.296;2022-08-19T04:24:28;1999.9;;;289.11;;
64022;SDS011;50264;52.088;5.296;2022-08-19T04:26:06;1847.4;;;323.7;;
64022;SDS011;50264;52.088;5.296;2022-08-19T04:27:46;1999.9;;;352.4;;
64022;SDS011;50264;52.088;5.296;2022-08-19T04:29:24;1999.9;;;361.3;;
64022;SDS011;50264;52.088;5.296;2022-08-19T04:32:37;1999.9;;;367.4;;
64022;SDS011;50264;52.088;5.296;2022-08-19T04:34:17;1999.9;;;375.7;;
64022;SDS011;50264;52.088;5.296;2022-08-19T04:35:58;1999.9;;;333.4;;
64022;SDS011;50264;52.088;5.296;2022-08-19T04:39:11;1999.9;;;333.4;;
64022;SDS011;50264;52.088;5.296;2022-08-19T04:43:47;1999.9;;;305.91;;
64022;SDS011;50264;52.088;5.296;2022-08-19T04:45:23;1999.9;;;317.0;;
64022;SDS011;50264;52.088;5.296;2022-08-19T04:47:00;1999.9;;;326.7;;
64022;SDS011;50264;52.088;5.296;2022-08-19T04:48:37;1999.9;;;319.7;;
64022;SDS011;50264;52.088;5.296;2022-08-19T04:50:15;1922.1;;;302.7;;
64022;SDS011;50264;52.088;5.296;2022-08-19T04:53:31;1999.9;;;312.3;;
64022;SDS011;50264;52.088;5.296;2022-08-19T04:55:10;1999.9;;;322.2;;
64022;SDS011;50264;52.088;5.296;2022-08-19T04:56:49;1999.9;;;311.2;;
64022;SDS011;50264;52.088;5.296;2022-08-19T05:00:04;1999.9;;;346.3;;
64022;SDS011;50264;52.088;5.296;2022-08-19T05:01:42;1989.5;;;301.11;;
64022;SDS011;50264;52.088;5.296;2022-08-19T05:03:18;1999.9;;;389.7;;
64022;SDS011;50264;52.088;5.296;2022-08-19T05:04:56;1999.9;;;369.7;;
64022;SDS011;50264;52.088;5.296;2022-08-19T05:08:12;1999.9;;;365.4;;
64022;SDS011;50264;52.088;5.296;2022-08-19T05:09:50;1999.9;;;335.5;;
64022;SDS011;50264;52.088;5.296;2022-08-19T05:11:27;1999.9;;;334.7;;
64022;SDS011;50264;52.088;5.296;2022-08-19T05:14:47;1999.9;;;372.9;;
64022;SDS011;50264;52.088;5.296;2022-08-19T05:16:25;1999.9;;;364.7;;
64022;SDS011;50264;52.088;5.296;2022-08-19T05:24:29;1999.9;;;357.1;;
64022;SDS011;50264;52.088;5.296;2022-08-19T05:26:06;1999.9;;;315.5;;
64022;SDS011;50264;52.088;5.296;2022-08-19T05:29:19;1999.9;;;312.3;;
64022;SDS011;50264;52.088;5.296;2022-08-19T05:30:57;1999.9;;;324.41;;
64022;SDS011;50264;52.088;5.296;2022-08-19T05:32:33;1999.9;;;356.3;;
64022;SDS011;50264;52.088;5.296;2022-08-19T05:34:11;1999.9;;;327.61;;
64022;SDS011;50264;52.088;5.296;2022-08-19T05:37:27;1999.9;;;328.8;;
64022;SDS011;50264;52.088;5.296;2022-08-19T05:39:04;1999.9;;;345.4;;
64022;SDS011;50264;52.088;5.296;2022-08-19T05:40:41;1999.9;;;348.9;;
64022;SDS011;50264;52.088;5.296;2022-08-19T05:43:57;1999.9;;;360.0;;
64022;SDS011;50264;52.088;5.296;2022-08-19T05:45:37;1978.7;;;353.2;;
64022;SDS011;50264;52.088;5.296;2022-08-19T05:47:15;1999.9;;;344.2;;
64022;SDS011;50264;52.088;5.296;2022-08-19T05:48:53;1818.5;;;336.5;;
64022;SDS011;50264;52.088;5.296;2022-08-19T05:52:08;1999.9;;;326.8;;
64022;SDS011;50264;52.088;5.296;2022-08-19T05:53:46;1999.9;;;365.1;;
64022;SDS011;50264;52.088;5.296;2022-08-19T05:55:23;1999.9;;;346.7;;
64022;SDS011;50264;52.088;5.296;2022-08-19T05:58:37;1999.9;;;342.3;;
64022;SDS011;50264;52.088;5.296;2022-08-19T06:00:14;1999.9;;;362.2;;
64022;SDS011;50264;52.088;5.296;2022-08-19T06:01:54;1999.9;;;336.2;;
64022;SDS011;50264;52.088;5.296;2022-08-19T06:03:31;1999.9;;;322.11;;
64022;SDS011;50264;52.088;5.296;2022-08-19T06:06:46;1999.9;;;366.5;;
64022;SDS011;50264;52.088;5.296;2022-08-19T06:08:24;1999.9;;;313.3;;
64022;SDS011;50264;52.088;5.296;2022-08-19T06:10:02;1999.9;;;335.5;;
64022;SDS011;50264;52.088;5.296;2022-08-19T06:13:20;1999.9;;;335.5;;
64022;SDS011;50264;52.088;5.296;2022-08-19T06:14:57;1999.9;;;315.7;;
64022;SDS011;50264;52.088;5.296;2022-08-19T06:16:36;1999.9;;;349.1;;
64022;SDS011;50264;52.088;5.296;2022-08-19T06:18:14;1999.9;;;358.9;;
64022;SDS011;50264;52.088;5.296;2022-08-19T06:21:28;1999.9;;;358.2;;
64022;SDS011;50264;52.088;5.296;2022-08-19T06:23:06;1999.9;;;334.5;;
64022;SDS011;50264;52.088;5.296;2022-08-19T06:24:43;1999.9;;;354.8;;
64022;SDS011;50264;52.088;5.296;2022-08-19T06:27:57;1999.9;;;353.8;;
64022;SDS011;50264;52.088;5.296;2022-08-19T06:29:34;1999.9;;;355.2;;
64022;SDS011;50264;52.088;5.296;2022-08-19T06:31:14;1999.9;;;327.11;;
64022;SDS011;50264;52.088;5.296;2022-08-19T06:32:52;1999.9;;;331.4;;
64022;SDS011;50264;52.088;5.296;2022-08-19T06:36:15;1999.9;;;341.3;;
64022;SDS011;50264;52.088;5.296;2022-08-19T06:37:53;1999.9;;;361.8;;
64022;SDS011;50264;52.088;5.296;2022-08-19T06:39:30;1999.9;;;362.3;;
64022;SDS011;50264;52.088;5.296;2022-08-19T06:41:14;1999.9;;;353.5;;
64022;SDS011;50264;52.088;5.296;2022-08-19T06:44:28;1999.9;;;317.5;;
64022;SDS011;50264;52.088;5.296;2022-08-19T06:46:10;1999.9;;;360.9;;
64022;SDS011;50264;52.088;5.296;2022-08-19T06:47:48;1999.9;;;350.7;;
64022;SDS011;50264;52.088;5.296;2022-08-19T06:49:27;1999.9;;;361.1;;
64022;SDS011;50264;52.088;5.296;2022-08-19T06:52:44;1999.9;;;391.8;;
64022;SDS011;50264;52.088;5.296;2022-08-19T06:54:20;1999.9;;;365.1;;
64022;SDS011;50264;52.088;5.296;2022-08-19T06:56:00;1999.9;;;347.4;;
64022;SDS011;50264;52.088;5.296;2022-08-19T06:59:13;1999.9;;;360.9;;
64022;SDS011;50264;52.088;5.296;2022-08-19T07:01:01;1999.9;;;393.1;;
64022;SDS011;50264;52.088;5.296;2022-08-19T07:02:39;1999.9;;;367.1;;
64022;SDS011;50264;52.088;5.296;2022-08-19T07:04:16;1999.9;;;361.2;;
64022;SDS011;50264;52.088;5.296;2022-08-19T07:07:34;1999.9;;;384.2;;
64022;SDS011;50264;52.088;5.296;2022-08-19T07:09:12;1999.9;;;351.0;;
64022;SDS011;50264;52.088;5.296;2022-08-19T07:10:53;1999.9;;;325.7;;
64022;SDS011;50264;52.088;5.296;2022-08-19T07:12:29;1999.9;;;382.9;;
64022;SDS011;50264;52.088;5.296;2022-08-19T07:15:46;1999.9;;;406.2;;
64022;SDS011;50264;52.088;5.296;2022-08-19T07:17:22;1999.9;;;393.6;;
64022;SDS011;50264;52.088;5.296;2022-08-19T07:18:59;1999.9;;;365.8;;
64022;SDS011;50264;52.088;5.296;2022-08-19T07:22:14;1999.9;;;350.7;;
64022;SDS011;50264;52.088;5.296;2022-08-19T07:23:51;1999.9;;;379.2;;
64022;SDS011;50264;52.088;5.296;2022-08-19T07:25:28;1999.9;;;374.9;;
64022;SDS011;50264;52.088;5.296;2022-08-19T07:27:05;1999.9;;;390.2;;
64022;SDS011;50264;52.088;5.296;2022-08-19T07:30:23;1999.9;;;387.5;;
64022;SDS011;50264;52.088;5.296;2022-08-19T07:31:59;1999.9;;;377.4;;
64022;SDS011;50264;52.088;5.296;2022-08-19T07:33:37;1999.9;;;362.3;;
64022;SDS011;50264;52.088;5.296;2022-08-19T07:36:50;1999.9;;;362.3;;
64022;SDS011;50264;52.088;5.296;2022-08-19T07:38:28;1999.9;;;385.1;;
64022;SDS011;50264;52.088;5.296;2022-08-19T07:40:05;1999.9;;;383.6;;
64022;SDS011;50264;52.088;5.296;2022-08-19T07:41:43;1999.9;;;389.8;;
64022;SDS011;50264;52.088;5.296;2022-08-19T07:45:03;1999.9;;;369.1;;
64022;SDS011;50264;52.088;5.296;2022-08-19T07:46:45;1999.9;;;373.0;;
64022;SDS011;50264;52.088;5.296;2022-08-19T07:48:29;1999.9;;;398.2;;
64022;SDS011;50264;52.088;5.296;2022-08-19T07:50:06;1999.9;;;394.3;;
64022;SDS011;50264;52.088;5.296;2022-08-19T07:53:25;1999.9;;;386.8;;
64022;SDS011;50264;52.088;5.296;2022-08-19T07:55:04;1999.9;;;396.8;;
64022;SDS011;50264;52.088;5.296;2022-08-19T07:56:42;1999.9;;;376.2;;
64022;SDS011;50264;52.088;5.296;2022-08-19T07:59:58;1999.9;;;393.2;;
64022;SDS011;50264;52.088;5.296;2022-08-19T08:01:34;1999.9;;;378.0;;
64022;SDS011;50264;52.088;5.296;2022-08-19T08:03:12;1999.9;;;372.9;;
64022;SDS011;50264;52.088;5.296;2022-08-19T08:09:29;1999.9;;;375.3;;
64022;SDS011;50264;52.088;5.296;2022-08-19T08:11:09;1999.9;;;374.1;;
64022;SDS011;50264;52.088;5.296;2022-08-19T08:14:23;1999.9;;;368.6;;
64022;SDS011;50264;52.088;5.296;2022-08-19T08:16:03;1999.9;;;373.1;;
64022;SDS011;50264;52.088;5.296;2022-08-19T08:17:40;1999.9;;;404.2;;
64022;SDS011;50264;52.088;5.296;2022-08-19T08:20:57;1999.9;;;381.5;;
64022;SDS011;50264;52.088;5.296;2022-08-19T08:23:38;1999.9;;;396.0;;
64022;SDS011;50264;52.088;5.296;2022-08-19T08:25:14;1999.9;;;399.3;;
64022;SDS011;50264;52.088;5.296;2022-08-19T08:26:56;1999.9;;;402.1;;
64022;SDS011;50264;52.088;5.296;2022-08-19T08:28:35;1999.9;;;418.0;;
64022;SDS011;50264;52.088;5.296;2022-08-19T08:30:12;1999.9;;;392.1;;
64022;SDS011;50264;52.088;5.296;2022-08-19T08:33:30;1999.9;;;397.4;;
64022;SDS011;50264;52.088;5.296;2022-08-19T08:35:07;1999.9;;;407.7;;
64022;SDS011;50264;52.088;5.296;2022-08-19T08:36:48;1999.9;;;410.5;;
64022;SDS011;50264;52.088;5.296;2022-08-19T08:38:25;1999.9;;;405.2;;
64022;SDS011;50264;52.088;5.296;2022-08-19T08:41:44;1999.9;;;403.6;;
64022;SDS011;50264;52.088;5.296;2022-08-19T08:43:33;1999.9;;;429.2;;
64022;SDS011;50264;52.088;5.296;2022-08-19T08:45:15;1999.9;;;435.2;;
64022;SDS011;50264;52.088;5.296;2022-08-19T08:46:55;1999.9;;;429.3;;
64022;SDS011;50264;52.088;5.296;2022-08-19T08:50:21;1999.9;;;408.9;;
64022;SDS011;50264;52.088;5.296;2022-08-19T08:52:05;1999.9;;;460.4;;
64022;SDS011;50264;52.088;5.296;2022-08-19T08:53:48;1999.9;;;434.2;;
64022;SDS011;50264;52.088;5.296;2022-08-19T08:55:27;1999.9;;;418.1;;
64022;SDS011;50264;52.088;5.296;2022-08-19T08:57:07;1999.9;;;436.7;;
64022;SDS011;50264;52.088;5.296;2022-08-19T09:00:38;1999.9;;;414.6;;
64022;SDS011;50264;52.088;5.296;2022-08-19T09:02:20;1999.9;;;467.7;;
64022;SDS011;50264;52.088;5.296;2022-08-19T09:03:56;1999.9;;;421.8;;
64022;SDS011;50264;52.088;5.296;2022-08-19T09:05:35;1999.9;;;438.8;;
64022;SDS011;50264;52.088;5.296;2022-08-19T09:09:32;1999.9;;;440.6;;
64022;SDS011;50264;52.088;5.296;2022-08-19T09:11:15;1999.9;;;442.3;;
64022;SDS011;50264;52.088;5.296;2022-08-19T09:13:08;1999.9;;;468.1;;
64022;SDS011;50264;52.088;5.296;2022-08-19T09:15:01;1999.9;;;451.8;;
64022;SDS011;50264;52.088;5.296;2022-08-19T09:16:41;1999.9;;;428.5;;
64022;SDS011;50264;52.088;5.296;2022-08-19T09:18:18;1999.9;;;433.2;;
64022;SDS011;50264;52.088;5.296;2022-08-19T09:21:35;1999.9;;;408.5;;
64022;SDS011;50264;52.088;5.296;2022-08-19T09:23:11;1999.9;;;438.9;;
64022;SDS011;50264;52.088;5.296;2022-08-19T09:24:48;1999.9;;;416.3;;
64022;SDS011;50264;52.088;5.296;2022-08-19T09:26:24;1999.9;;;414.2;;
64022;SDS011;50264;52.088;5.296;2022-08-19T09:29:39;1999.9;;;414.8;;
64022;SDS011;50264;52.088;5.296;2022-08-19T09:31:17;1999.9;;;418.0;;
64022;SDS011;50264;52.088;5.296;2022-08-19T09:33:01;1999.9;;;417.9;;
64022;SDS011;50264;52.088;5.296;2022-08-19T09:36:15;1999.9;;;429.2;;
64022;SDS011;50264;52.088;5.296;2022-08-19T09:37:54;1999.9;;;451.3;;
64022;SDS011;50264;52.088;5.296;2022-08-19T09:39:30;1999.9;;;435.3;;
64022;SDS011;50264;52.088;5.296;2022-08-19T09:41:09;1999.9;;;425.7;;
64022;SDS011;50264;52.088;5.296;2022-08-19T09:44:24;1999.9;;;423.3;;
64022;SDS011;50264;52.088;5.296;2022-08-19T09:46:00;1999.9;;;395.5;;
64022;SDS011;50264;52.088;5.296;2022-08-19T09:47:38;1999.9;;;422.4;;
64022;SDS011;50264;52.088;5.296;2022-08-19T09:50:52;1999.9;;;419.9;;
64022;SDS011;50264;52.088;5.296;2022-08-19T09:52:28;1999.9;;;417.2;;
64022;SDS011;50264;52.088;5.296;2022-08-19T09:54:04;1999.9;;;409.8;;
64022;SDS011;50264;52.088;5.296;2022-08-19T09:55:41;1999.9;;;416.1;;
64022;SDS011;50264;52.088;5.296;2022-08-19T09:58:54;1999.9;;;410.8;;
64022;SDS011;50264;52.088;5.296;2022-08-19T10:00:30;1999.9;;;423.9;;
64022;SDS011;50264;52.088;5.296;2022-08-19T10:02:09;1999.9;;;423.9;;
64022;SDS011;50264;52.088;5.296;2022-08-19T10:05:56;1999.9;;;414.5;;
64022;SDS011;50264;52.088;5.296;2022-08-19T10:07:35;1999.9;;;417.5;;
64022;SDS011;50264;52.088;5.296;2022-08-19T10:09:12;1999.9;;;411.1;;
64022;SDS011;50264;52.088;5.296;2022-08-19T10:10:50;1999.9;;;409.0;;
64022;SDS011;50264;52.088;5.296;2022-08-19T10:12:27;1999.9;;;409.8;;
64022;SDS011;50264;52.088;5.296;2022-08-19T10:15:43;1999.9;;;407.1;;
64022;SDS011;50264;52.088;5.296;2022-08-19T10:17:20;1999.9;;;409.6;;
64022;SDS011;50264;52.088;5.296;2022-08-19T10:18:56;1999.9;;;400.9;;
64022;SDS011;50264;52.088;5.296;2022-08-19T10:22:14;1999.9;;;399.9;;
64022;SDS011;50264;52.088;5.296;2022-08-19T10:23:51;1999.9;;;390.9;;
64022;SDS011;50264;52.088;5.296;2022-08-19T10:25:32;1999.9;;;390.9;;
64022;SDS011;50264;52.088;5.296;2022-08-19T10:27:10;1999.9;;;413.9;;
64022;SDS011;50264;52.088;5.296;2022-08-19T10:30:23;1999.9;;;386.4;;
64022;SDS011;50264;52.088;5.296;2022-08-19T10:32:00;1999.9;;;404.3;;
64022;SDS011;50264;52.088;5.296;2022-08-19T10:33:38;1999.9;;;377.3;;
64022;SDS011;50264;52.088;5.296;2022-08-19T10:36:52;1999.9;;;391.9;;
64022;SDS011;50264;52.088;5.296;2022-08-19T10:38:28;1999.9;;;401.5;;
64022;SDS011;50264;52.088;5.296;2022-08-19T10:40:06;1999.9;;;389.3;;
64022;SDS011;50264;52.088;5.296;2022-08-19T10:41:44;1999.9;;;394.4;;
64022;SDS011;50264;52.088;5.296;2022-08-19T10:44:57;1999.9;;;400.3;;
64022;SDS011;50264;52.088;5.296;2022-08-19T10:46:35;1999.9;;;404.4;;
64022;SDS011;50264;52.088;5.296;2022-08-19T10:48:16;1999.9;;;398.9;;
64022;SDS011;50264;52.088;5.296;2022-08-19T10:52:46;1999.9;;;398.0;;
64022;SDS011;50264;52.088;5.296;2022-08-19T10:56:50;1999.9;;;383.4;;
64022;SDS011;50264;52.088;5.296;2022-08-19T10:58:26;1999.9;;;394.3;;
64022;SDS011;50264;52.088;5.296;2022-08-19T11:01:40;1999.9;;;395.6;;
64022;SDS011;50264;52.088;5.296;2022-08-19T11:03:19;1999.9;;;407.7;;
64022;SDS011;50264;52.088;5.296;2022-08-19T11:04:56;1999.9;;;404.1;;
64022;SDS011;50264;52.088;5.296;2022-08-19T11:08:11;1999.9;;;421.0;;
64022;SDS011;50264;52.088;5.296;2022-08-19T11:09:47;1999.9;;;395.7;;
64022;SDS011;50264;52.088;5.296;2022-08-19T11:11:24;1999.9;;;401.7;;
64022;SDS011;50264;52.088;5.296;2022-08-19T11:13:00;1999.9;;;415.3;;
64022;SDS011;50264;52.088;5.296;2022-08-19T11:16:14;1999.9;;;415.0;;
64022;SDS011;50264;52.088;5.296;2022-08-19T11:17:54;1999.9;;;404.1;;
64022;SDS011;50264;52.088;5.296;2022-08-19T11:19:32;1999.9;;;410.9;;
64022;SDS011;50264;52.088;5.296;2022-08-19T11:22:49;1999.9;;;390.7;;
64022;SDS011;50264;52.088;5.296;2022-08-19T11:24:27;1999.9;;;405.5;;
64022;SDS011;50264;52.088;5.296;2022-08-19T11:26:04;1999.9;;;402.2;;
64022;SDS011;50264;52.088;5.296;2022-08-19T11:27:42;1999.9;;;401.2;;
64022;SDS011;50264;52.088;5.296;2022-08-19T11:30:57;1999.9;;;392.7;;
64022;SDS011;50264;52.088;5.296;2022-08-19T11:32:36;1999.9;;;395.7;;
64022;SDS011;50264;52.088;5.296;2022-08-19T11:34:14;1999.9;;;389.0;;
64022;SDS011;50264;52.088;5.296;2022-08-19T11:37:37;1999.9;;;388.5;;
64022;SDS011;50264;52.088;5.296;2022-08-19T11:39:14;1999.9;;;413.9;;
64022;SDS011;50264;52.088;5.296;2022-08-19T11:40:54;1999.9;;;390.5;;
64022;SDS011;50264;52.088;5.296;2022-08-19T11:43:04;1999.9;;;395.1;;
64022;SDS011;50264;52.088;5.296;2022-08-19T11:44:40;1999.9;;;395.0;;
64022;SDS011;50264;52.088;5.296;2022-08-19T11:47:53;1999.9;;;371.3;;
64022;SDS011;50264;52.088;5.296;2022-08-19T11:49:31;1999.9;;;383.3;;
64022;SDS011;50264;52.088;5.296;2022-08-19T11:51:09;1999.9;;;393.0;;
64022;SDS011;50264;52.088;5.296;2022-08-19T11:52:53;1999.9;;;390.6;;
64022;SDS011;50264;52.088;5.296;2022-08-19T11:56:08;1999.9;;;382.3;;
64022;SDS011;50264;52.088;5.296;2022-08-19T11:57:46;1999.9;;;372.8;;
64022;SDS011;50264;52.088;5.296;2022-08-19T11:59:22;1999.9;;;382.7;;
64022;SDS011;50264;52.088;5.296;2022-08-19T12:02:35;1999.9;;;370.9;;
64022;SDS011;50264;52.088;5.296;2022-08-19T12:04:12;1999.9;;;374.8;;
64022;SDS011;50264;52.088;5.296;2022-08-19T12:05:49;1999.9;;;377.9;;
64022;SDS011;50264;52.088;5.296;2022-08-19T12:07:25;1999.9;;;391.8;;
64022;SDS011;50264;52.088;5.296;2022-08-19T12:10:42;1999.9;;;383.5;;
64022;SDS011;50264;52.088;5.296;2022-08-19T12:12:20;1999.9;;;380.0;;
64022;SDS011;50264;52.088;5.296;2022-08-19T12:13:57;1999.9;;;388.4;;
64022;SDS011;50264;52.088;5.296;2022-08-19T12:17:11;1999.9;;;397.3;;
64022;SDS011;50264;52.088;5.296;2022-08-19T12:18:50;1999.9;;;373.7;;
64022;SDS011;50264;52.088;5.296;2022-08-19T12:20:27;1999.9;;;388.4;;